createdAt,value
2019-02-07T00:01:41.010Z,29.63
2019-02-07T00:04:07.088Z,31.00
2019-02-07T00:06:33.095Z,27.00
2019-02-07T00:08:59.127Z,30.17
2019-02-07T00:11:25.181Z,36.70
2019-02-07T00:13:51.238Z,36.30
2019-02-07T00:16:17.543Z,36.53
2019-02-07T00:18:43.557Z,34.03
2019-02-07T00:21:09.623Z,40.57
2019-02-07T00:23:35.662Z,49.40
2019-02-07T00:26:01.667Z,52.83
2019-02-07T00:28:27.695Z,56.87
2019-02-07T00:30:53.814Z,56.17
2019-02-07T00:33:19.833Z,59.47
2019-02-07T00:35:45.844Z,63.27
2019-02-07T00:38:11.865Z,47.67
2019-02-07T00:40:37.866Z,53.17
2019-02-07T00:43:03.899Z,54.83
2019-02-07T00:45:29.931Z,48.60
2019-02-07T00:47:55.942Z,49.00
2019-02-07T00:50:21.971Z,49.80
2019-02-07T00:52:48.055Z,53.90
2019-02-07T00:55:15.387Z,50.73
2019-02-07T00:57:41.694Z,52.80
2019-02-07T01:00:22.603Z,47.80
2019-02-07T01:02:48.935Z,48.53
2019-02-07T01:05:15.067Z,49.50
2019-02-07T01:07:41.203Z,50.23
2019-02-07T01:10:10.360Z,53.07
2019-02-07T01:12:36.574Z,62.13
2019-02-07T01:15:05.299Z,57.53
2019-02-07T01:17:31.332Z,55.77
2019-02-07T01:19:57.363Z,58.90
2019-02-07T01:22:23.490Z,55.90
2019-02-07T01:24:49.516Z,62.43
2019-02-07T01:27:15.548Z,56.87
2019-02-07T01:29:41.555Z,59.80
2019-02-07T01:32:07.891Z,52.47
2019-02-07T01:34:33.971Z,55.10
2019-02-07T01:36:59.998Z,51.57
2019-02-07T01:39:26.011Z,53.77
2019-02-07T01:41:52.131Z,55.20
2019-02-07T01:44:18.140Z,55.90
2019-02-07T01:46:44.187Z,54.80
2019-02-07T01:49:10.199Z,50.13
2019-02-07T01:51:36.710Z,51.63
2019-02-07T01:54:02.940Z,49.30
2019-02-07T01:56:28.952Z,49.60
2019-02-07T01:58:54.979Z,49.93
2019-02-07T02:01:21.014Z,48.00
2019-02-07T02:03:47.029Z,50.90
2019-02-07T02:06:13.075Z,48.63
2019-02-07T02:08:39.116Z,57.70
2019-02-07T02:11:05.314Z,50.73
2019-02-07T02:13:31.546Z,55.37
2019-02-07T02:15:57.575Z,54.30
2019-02-07T02:18:23.607Z,58.50
2019-02-07T02:20:49.619Z,54.47
2019-02-07T02:23:15.652Z,52.93
2019-02-07T02:25:41.687Z,55.13
2019-02-07T02:28:07.819Z,54.43
2019-02-07T02:30:34.395Z,54.87
2019-02-07T02:33:20.598Z,53.67
2019-02-07T02:35:46.636Z,56.80
2019-02-07T02:38:12.668Z,54.97
2019-02-07T02:40:38.704Z,54.60
2019-02-07T02:43:04.819Z,52.23
2019-02-07T02:45:37.436Z,55.10
2019-02-07T02:47:58.773Z,59.67
2019-02-07T02:50:24.783Z,49.77
2019-02-07T02:52:50.836Z,55.50
2019-02-07T02:55:24.575Z,51.97
2019-02-07T02:57:50.606Z,53.27
2019-02-07T03:00:18.617Z,52.93
2019-02-07T03:03:03.391Z,50.67
2019-02-07T03:05:31.315Z,47.83
2019-02-07T03:08:05.049Z,52.93
2019-02-07T03:10:32.970Z,52.07
2019-02-07T03:13:06.723Z,54.23
2019-02-07T03:15:49.608Z,59.97
2019-02-07T03:18:22.203Z,56.97
2019-02-07T03:21:02.047Z,52.77
2019-02-07T03:23:32.501Z,53.80
2019-02-07T03:26:06.132Z,53.20
2019-02-07T03:28:45.847Z,51.87
2019-02-07T03:31:30.467Z,54.90
2019-02-07T03:33:58.379Z,48.17
2019-02-07T03:36:26.324Z,53.37
2019-02-07T03:39:10.717Z,56.53
2019-02-07T03:41:55.286Z,53.83
2019-02-07T03:44:23.239Z,54.10
2019-02-07T03:47:09.169Z,52.70
2019-02-07T03:49:37.071Z,55.73
2019-02-07T03:52:07.787Z,52.00
2019-02-07T03:54:39.001Z,55.97
2019-02-07T03:57:09.696Z,52.57
2019-02-07T03:59:43.485Z,50.03
2019-02-07T04:02:14.372Z,57.97
2019-02-07T04:04:48.217Z,55.93
2019-02-07T04:07:32.457Z,48.13
2019-02-07T04:10:09.352Z,47.40
2019-02-07T04:12:45.921Z,54.37
2019-02-07T04:15:20.227Z,48.33
2019-02-07T04:17:48.145Z,48.13
2019-02-07T04:20:32.502Z,51.57
2019-02-07T04:23:06.457Z,51.73
2019-02-07T04:25:51.123Z,58.90
2019-02-07T04:28:21.836Z,50.67
2019-02-07T04:30:55.619Z,53.67
2019-02-07T04:33:40.318Z,48.07
2019-02-07T04:36:08.256Z,44.23
2019-02-07T04:38:48.357Z,52.03
2019-02-07T04:41:16.327Z,55.33
2019-02-07T04:44:00.792Z,55.07
2019-02-07T04:46:31.492Z,49.53
2019-02-07T04:49:05.427Z,49.90
2019-02-07T04:51:36.124Z,52.40
2019-02-07T04:54:06.836Z,57.50
2019-02-07T04:56:37.700Z,52.10
2019-02-07T04:59:05.650Z,50.07
2019-02-07T05:01:48.571Z,51.67
2019-02-07T05:04:19.251Z,51.50
2019-02-07T05:06:59.601Z,52.00
2019-02-07T05:09:30.472Z,51.37
2019-02-07T05:11:57.367Z,51.97
2019-02-07T05:14:41.850Z,53.17
2019-02-07T05:17:15.981Z,52.20
2019-02-07T05:19:53.015Z,55.90
2019-02-07T05:22:29.983Z,54.57
2019-02-07T05:25:12.991Z,56.27
2019-02-07T05:27:40.934Z,57.67
2019-02-07T05:30:18.231Z,59.20
2019-02-07T05:33:03.011Z,58.77
2019-02-07T05:35:47.688Z,55.67
2019-02-07T05:41:04.944Z,58.60
2019-02-07T05:43:38.444Z,59.00
2019-02-07T05:46:12.296Z,67.60
2019-02-07T05:48:40.235Z,62.23
2019-02-07T05:51:20.454Z,60.53
2019-02-07T05:53:53.029Z,66.17
2019-02-07T05:56:27.884Z,73.60
2019-02-07T05:59:01.668Z,62.43
2019-02-07T06:01:38.486Z,65.83
2019-02-07T06:04:09.220Z,66.27
2019-02-07T06:06:46.718Z,66.97
2019-02-07T06:09:33.816Z,66.03
2019-02-07T06:12:16.855Z,72.87
2019-02-07T06:14:53.876Z,60.00
2019-02-07T06:17:38.615Z,69.90
2019-02-07T06:20:31.252Z,64.73
2019-02-07T06:22:59.168Z,66.57
2019-02-07T06:25:27.116Z,62.57
2019-02-07T06:28:06.895Z,67.00
2019-02-07T06:30:37.838Z,58.47
2019-02-07T06:33:23.880Z,59.70
2019-02-07T06:36:03.821Z,67.13
2019-02-07T06:38:46.680Z,61.37
2019-02-07T06:41:14.619Z,62.40
2019-02-07T06:47:00.356Z,67.67
2019-02-07T06:49:40.635Z,57.63
2019-02-07T06:52:11.085Z,57.10
2019-02-07T06:54:44.819Z,70.40
2019-02-07T06:57:29.451Z,61.90
2019-02-07T07:00:14.028Z,58.70
2019-02-07T07:02:41.947Z,60.17
2019-02-07T07:05:28.383Z,62.80
2019-02-07T07:08:12.872Z,63.63
2019-02-07T07:10:46.692Z,64.07
2019-02-07T07:13:14.638Z,55.73
2019-02-07T07:15:42.584Z,59.93
2019-02-07T07:18:27.139Z,59.77
2019-02-07T07:21:11.847Z,58.17
2019-02-07T07:23:54.915Z,59.57
2019-02-07T07:26:39.331Z,58.43
2019-02-07T07:29:07.591Z,58.47
2019-02-07T07:31:38.039Z,54.27
2019-02-07T07:34:25.853Z,53.97
2019-02-07T07:36:53.823Z,56.43
2019-02-07T07:39:38.756Z,54.87
2019-02-07T07:42:06.701Z,54.27
2019-02-07T07:44:46.610Z,55.00
2019-02-07T07:47:35.749Z,53.67
2019-02-07T07:50:04.967Z,53.23
2019-02-07T07:52:41.992Z,53.50
2019-02-07T07:55:09.907Z,54.80
2019-02-07T07:57:53.063Z,54.17
2019-02-07T08:00:26.807Z,64.97
2019-02-07T08:02:54.802Z,56.80
2019-02-07T08:05:22.727Z,54.93
2019-02-07T08:07:53.407Z,61.37
2019-02-07T08:10:27.383Z,60.97
2019-02-07T08:13:01.308Z,61.30
2019-02-07T08:15:35.219Z,55.37
2019-02-07T08:18:15.069Z,54.43
2019-02-07T08:20:49.011Z,55.83
2019-02-07T08:23:16.951Z,55.73
2019-02-07T08:25:44.875Z,59.57
2019-02-07T08:28:12.816Z,54.57
2019-02-07T08:30:52.675Z,54.43
2019-02-07T08:33:39.263Z,50.57
2019-02-07T08:36:10.711Z,54.80
2019-02-07T08:38:41.167Z,50.27
2019-02-07T08:41:09.084Z,48.80
2019-02-07T08:43:40.109Z,45.23
2019-02-07T08:46:08.028Z,46.10
2019-02-07T08:48:48.003Z,48.13
2019-02-07T08:51:32.579Z,42.57
2019-02-07T08:54:17.260Z,45.57
2019-02-07T08:56:57.083Z,48.43
2019-02-07T08:59:43.244Z,41.60
2019-02-07T09:02:29.512Z,45.47
2019-02-07T09:05:13.860Z,38.13
2019-02-07T09:07:58.363Z,41.87
2019-02-07T09:10:42.586Z,45.70
2019-02-07T09:13:10.615Z,42.67
2019-02-07T09:15:38.619Z,42.40
2019-02-07T09:18:24.939Z,39.13
2019-02-07T09:20:58.867Z,39.73
2019-02-07T09:23:26.809Z,41.37
2019-02-07T09:25:57.568Z,40.50
2019-02-07T09:28:31.796Z,38.40
2019-02-07T09:31:02.548Z,38.77
2019-02-07T09:33:50.344Z,36.07
2019-02-07T09:36:21.128Z,33.20
2019-02-07T09:38:55.728Z,38.80
2019-02-07T09:41:29.488Z,32.93
2019-02-07T09:44:09.460Z,33.70
2019-02-07T09:46:37.396Z,34.03
2019-02-07T09:49:17.888Z,36.33
2019-02-07T09:51:48.903Z,31.33
2019-02-07T09:54:22.451Z,30.73
2019-02-07T09:56:56.263Z,37.83
2019-02-07T09:59:24.181Z,31.63
2019-02-07T10:01:52.156Z,29.63
2019-02-07T10:04:32.004Z,25.83
2019-02-07T10:07:02.695Z,24.07
2019-02-07T10:09:45.694Z,25.83
2019-02-07T10:12:16.627Z,27.67
2019-02-07T10:14:44.555Z,26.95
2019-02-07T10:17:12.516Z,24.43
2019-02-07T10:19:45.979Z,23.00
2019-02-07T10:22:13.919Z,22.07
2019-02-07T10:24:57.460Z,21.03
2019-02-07T10:27:25.430Z,18.13
2019-02-07T10:30:05.135Z,18.90
2019-02-07T10:32:44.743Z,20.93
2019-02-07T10:35:22.428Z,19.53
2019-02-07T10:37:45.208Z,22.83
2019-02-07T10:40:31.868Z,23.77
2019-02-07T10:43:16.519Z,21.60
2019-02-07T10:45:47.297Z,29.17
2019-02-07T10:48:24.020Z,28.73
2019-02-07T10:51:06.812Z,25.63
2019-02-07T10:53:46.754Z,26.30
2019-02-07T10:56:20.411Z,27.37
2019-02-07T10:59:00.388Z,32.33
2019-02-07T11:01:31.423Z,29.87
2019-02-07T11:04:17.239Z,29.67
2019-02-07T11:06:45.168Z,30.70
2019-02-07T11:09:15.747Z,28.37
2019-02-07T11:11:53.523Z,32.67
2019-02-07T11:14:21.443Z,26.73
2019-02-07T11:16:49.407Z,29.47
2019-02-07T11:19:35.231Z,28.40
2019-02-07T11:22:06.496Z,34.17
2019-02-07T11:24:37.395Z,33.90
2019-02-07T11:27:20.238Z,34.77
2019-02-07T11:29:57.302Z,37.10
2019-02-07T11:32:42.135Z,37.87
2019-02-07T11:35:15.875Z,35.40
2019-02-07T11:37:52.623Z,33.63
2019-02-07T11:40:26.660Z,34.83
2019-02-07T11:43:11.228Z,31.80
2019-02-07T11:45:55.964Z,32.83
2019-02-07T11:48:27.317Z,31.63
2019-02-07T11:50:57.871Z,31.40
2019-02-07T11:53:42.635Z,30.70
2019-02-07T11:56:10.575Z,33.70
2019-02-07T11:58:56.899Z,33.20
2019-02-07T12:01:24.921Z,34.50
2019-02-07T12:03:55.585Z,31.57
2019-02-07T12:06:35.311Z,27.93
2019-02-07T12:09:06.172Z,31.10
2019-02-07T12:11:48.513Z,32.53
2019-02-07T12:14:21.951Z,31.83
2019-02-07T12:17:06.528Z,36.33
2019-02-07T12:19:34.460Z,29.20
2019-02-07T12:22:02.379Z,27.93
2019-02-07T12:24:47.175Z,29.93
2019-02-07T12:27:27.168Z,31.67
2019-02-07T12:29:55.099Z,33.07
2019-02-07T12:32:25.544Z,26.93
2019-02-07T12:34:55.296Z,33.70
2019-02-07T12:37:35.011Z,26.77
2019-02-07T12:40:09.596Z,29.73
2019-02-07T12:42:40.567Z,27.33
2019-02-07T12:45:09.900Z,24.47
2019-02-07T12:47:49.914Z,26.97
2019-02-07T12:50:34.560Z,24.83
2019-02-07T12:53:05.291Z,23.47
2019-02-07T12:55:35.717Z,26.43
2019-02-07T12:58:20.756Z,21.47
2019-02-07T13:00:48.683Z,26.27
2019-02-07T13:03:33.455Z,19.83
2019-02-07T13:06:01.404Z,19.77
2019-02-07T13:08:32.271Z,19.23
2019-02-07T13:11:03.312Z,23.87
2019-02-07T13:13:34.095Z,22.37
2019-02-07T13:16:14.218Z,17.80
2019-02-07T13:18:42.156Z,19.20
2019-02-07T13:21:25.394Z,17.90
2019-02-07T13:24:30.025Z,19.77
2019-02-07T13:27:14.544Z,17.13
2019-02-07T13:29:42.579Z,17.63
2019-02-07T13:32:19.619Z,19.73
2019-02-07T13:34:47.593Z,22.37
2019-02-07T13:37:15.565Z,18.57
2019-02-07T13:39:46.403Z,27.37
2019-02-07T13:42:16.860Z,18.77
2019-02-07T13:45:03.044Z,19.10
2019-02-07T13:47:30.974Z,19.37
2019-02-07T13:50:04.823Z,17.43
2019-02-07T13:52:38.588Z,17.27
2019-02-07T13:55:26.426Z,21.23
2019-02-07T13:58:00.311Z,18.47
2019-02-07T14:00:44.776Z,18.57
2019-02-07T14:03:12.691Z,21.20
2019-02-07T14:05:57.458Z,18.17
2019-02-07T14:08:38.117Z,25.55
2019-02-07T14:11:10.063Z,25.17
2019-02-07T14:13:54.687Z,23.53
2019-02-07T14:16:26.042Z,20.87
2019-02-07T14:19:26.067Z,23.07
2019-02-07T14:21:56.952Z,25.67
2019-02-07T14:24:25.071Z,22.03
2019-02-07T14:26:55.983Z,18.60
2019-02-07T14:29:32.979Z,22.13
2019-02-07T14:32:03.939Z,25.23
2019-02-07T14:34:48.459Z,22.33
2019-02-07T14:37:19.297Z,20.70
2019-02-07T14:39:47.214Z,22.03
2019-02-07T14:42:18.126Z,23.13
2019-02-07T14:44:46.135Z,28.30
2019-02-07T14:47:12.175Z,25.63
2019-02-07T14:49:38.507Z,22.40
2019-02-07T14:52:04.939Z,21.60
2019-02-07T14:54:30.953Z,24.93
2019-02-07T14:56:57.043Z,21.80
2019-02-07T14:59:23.082Z,22.10
2019-02-07T15:01:49.104Z,23.30
2019-02-07T15:04:15.139Z,22.77
2019-02-07T15:06:41.175Z,20.90
2019-02-07T15:09:12.195Z,22.23
2019-02-07T15:11:38.237Z,18.23
2019-02-07T15:14:04.262Z,21.10
2019-02-07T15:16:30.267Z,14.03
2019-02-07T15:18:56.354Z,19.07
2019-02-07T15:21:22.379Z,17.40
2019-02-07T15:23:48.420Z,15.47
2019-02-07T15:26:14.431Z,15.03
2019-02-07T15:28:40.775Z,13.67
2019-02-07T15:31:06.811Z,17.63
2019-02-07T15:33:32.859Z,16.77
2019-02-07T15:35:58.872Z,13.47
2019-02-07T15:38:25.027Z,17.57
2019-02-07T15:40:51.140Z,12.93
2019-02-07T15:43:17.172Z,17.53
2019-02-07T15:45:43.194Z,13.20
2019-02-07T15:48:09.236Z,16.13
2019-02-07T15:50:38.243Z,11.83
2019-02-07T15:53:05.012Z,19.57
2019-02-07T15:55:31.039Z,10.57
2019-02-07T15:57:57.051Z,11.33
2019-02-07T16:00:29.543Z,15.65
2019-02-07T16:02:58.052Z,16.30
2019-02-07T16:05:24.107Z,18.87
2019-02-07T16:07:50.443Z,18.00
2019-02-07T16:10:16.487Z,20.03
2019-02-07T16:12:42.548Z,27.60
2019-02-07T16:15:10.072Z,21.80
2019-02-07T16:17:36.231Z,22.63
2019-02-07T16:20:08.807Z,15.73
2019-02-07T16:22:34.933Z,14.50
2019-02-07T16:25:01.247Z,16.60
2019-02-07T16:27:27.280Z,13.70
2019-02-07T16:29:53.319Z,17.77
2019-02-07T16:32:19.327Z,25.27
2019-02-07T16:34:45.355Z,13.37
2019-02-07T16:37:11.468Z,15.37
2019-02-07T16:39:37.504Z,15.97
2019-02-07T16:42:06.445Z,19.93
2019-02-07T16:44:31.556Z,15.30
2019-02-07T16:46:57.595Z,16.77
2019-02-07T16:49:23.705Z,10.67
2019-02-07T16:51:49.760Z,16.17
2019-02-07T16:54:15.780Z,22.90
2019-02-07T16:56:41.824Z,13.13
2019-02-07T16:59:07.891Z,18.83
2019-02-07T17:01:33.920Z,16.27
2019-02-07T17:03:59.956Z,20.80
2019-02-07T17:06:26.001Z,11.07
2019-02-07T17:08:52.095Z,24.27
2019-02-07T17:11:18.113Z,21.23
2019-02-07T17:13:44.186Z,21.17
2019-02-07T17:16:10.198Z,22.47
2019-02-07T17:18:36.267Z,20.80
2019-02-07T17:21:11.576Z,25.87
2019-02-07T17:23:30.248Z,24.83
2019-02-07T17:25:56.307Z,27.50
2019-02-07T17:28:22.402Z,20.93
2019-02-07T17:30:48.464Z,25.07
2019-02-07T17:33:14.480Z,27.43
2019-02-07T17:35:40.520Z,28.43
2019-02-07T17:38:06.600Z,23.67
2019-02-07T17:40:32.651Z,33.37
2019-02-07T17:42:58.677Z,23.83
2019-02-07T17:45:29.023Z,26.43
2019-02-07T17:47:55.298Z,33.80
2019-02-07T17:50:24.719Z,32.23
2019-02-07T17:52:50.896Z,24.40
2019-02-07T17:55:19.547Z,22.40
2019-02-07T17:57:46.039Z,30.90
2019-02-07T18:00:29.588Z,29.20
2019-02-07T18:02:55.612Z,25.87
2019-02-07T18:05:21.663Z,23.03
2019-02-07T18:07:47.695Z,24.57
2019-02-07T18:10:13.733Z,22.60
2019-02-07T18:12:39.844Z,30.97
2019-02-07T18:15:07.779Z,26.00
2019-02-07T18:17:33.830Z,24.97
2019-02-07T18:20:32.630Z,30.50
2019-02-07T18:22:58.880Z,26.83
2019-02-07T18:25:25.824Z,31.20
2019-02-07T18:27:51.843Z,27.07
2019-02-07T18:30:19.494Z,24.17
2019-02-07T18:32:46.546Z,22.77
2019-02-07T18:35:13.483Z,20.73
2019-02-07T18:37:39.514Z,20.37
2019-02-07T18:40:09.259Z,30.37
2019-02-07T18:42:35.360Z,26.67
2019-02-07T18:45:01.685Z,21.87
2019-02-07T18:47:27.895Z,28.40
2019-02-07T18:49:54.470Z,19.93
2019-02-07T18:52:40.364Z,27.67
2019-02-07T18:55:06.706Z,19.70
2019-02-07T18:57:52.684Z,19.67
2019-02-07T19:00:22.928Z,19.37
2019-02-07T19:02:49.039Z,17.27
2019-02-07T19:05:17.429Z,20.13
2019-02-07T19:07:43.550Z,20.13
2019-02-07T19:10:12.609Z,23.53
2019-02-07T19:12:38.637Z,23.33
2019-02-07T19:15:14.062Z,21.13
2019-02-07T19:17:40.086Z,15.13
2019-02-07T19:20:28.766Z,21.48
2019-02-07T19:22:54.784Z,17.97
2019-02-07T19:25:20.821Z,19.57
2019-02-07T19:27:46.836Z,15.70
2019-02-07T19:30:25.691Z,18.40
2019-02-07T19:32:51.809Z,15.53
2019-02-07T19:35:17.851Z,14.60
2019-02-07T19:37:43.893Z,20.33
2019-02-07T19:40:12.812Z,13.53
2019-02-07T19:42:38.848Z,19.20
2019-02-07T19:45:08.280Z,35.97
2019-02-07T19:47:34.603Z,42.33
2019-02-07T19:50:00.639Z,20.60
2019-02-07T19:52:26.722Z,18.73
2019-02-07T19:54:52.896Z,38.00
2019-02-07T19:57:18.948Z,20.73
2019-02-07T19:59:44.959Z,23.37
2019-02-07T20:02:10.975Z,20.27
2019-02-07T20:04:37.089Z,18.57
2019-02-07T20:07:03.697Z,25.10
2019-02-07T20:09:29.740Z,16.57
2019-02-07T20:11:55.780Z,22.87
2019-02-07T20:14:21.880Z,18.00
2019-02-07T20:16:47.923Z,26.10
2019-02-07T20:19:13.940Z,18.10
2019-02-07T20:21:39.975Z,25.43
2019-02-07T20:24:06.011Z,21.00
2019-02-07T20:26:32.047Z,26.70
2019-02-07T20:28:58.067Z,29.40
2019-02-07T20:31:24.614Z,18.83
2019-02-07T20:33:50.627Z,18.43
2019-02-07T20:36:16.646Z,18.40
2019-02-07T20:38:42.691Z,20.13
2019-02-07T20:41:08.707Z,23.90
2019-02-07T20:43:34.748Z,20.03
2019-02-07T20:46:00.805Z,15.93
2019-02-07T20:48:26.954Z,23.73
2019-02-07T20:50:52.981Z,19.00
2019-02-07T20:53:19.060Z,14.53
2019-02-07T20:55:45.492Z,18.53
2019-02-07T20:58:11.574Z,16.73
2019-02-07T21:00:38.119Z,22.17
2019-02-07T21:03:04.428Z,21.50
2019-02-07T21:05:31.487Z,21.43
2019-02-07T21:07:57.516Z,24.15
2019-02-07T21:10:25.843Z,18.87
2019-02-07T21:12:51.976Z,15.57
2019-02-07T21:15:18.969Z,19.13
2019-02-07T21:17:46.313Z,22.17
2019-02-07T21:20:20.824Z,15.17
2019-02-07T21:22:46.872Z,20.03
2019-02-07T21:25:18.053Z,19.60
2019-02-07T21:27:44.103Z,19.23
2019-02-07T21:30:27.504Z,22.23
2019-02-07T21:32:53.664Z,21.20
2019-02-07T21:35:20.283Z,16.83
2019-02-07T21:37:46.320Z,18.47
2019-02-07T21:40:15.056Z,22.37
2019-02-07T21:42:41.067Z,17.43
2019-02-07T21:45:09.852Z,14.90
2019-02-07T21:47:35.915Z,21.23
2019-02-07T21:50:02.327Z,22.40
2019-02-07T21:52:28.680Z,19.97
2019-02-07T21:54:54.715Z,22.00
2019-02-07T21:57:20.740Z,16.30
2019-02-07T21:59:46.777Z,19.40
2019-02-07T22:02:12.815Z,16.07
2019-02-07T22:04:38.830Z,20.53
2019-02-07T22:07:04.948Z,17.23
2019-02-07T22:09:30.983Z,19.03
2019-02-07T22:11:57.411Z,16.23
2019-02-07T22:14:23.451Z,21.93
2019-02-07T22:16:49.479Z,20.00
2019-02-07T22:19:15.508Z,21.77
2019-02-07T22:21:41.545Z,24.00
2019-02-07T22:24:07.581Z,17.90
2019-02-07T22:26:33.603Z,21.47
2019-02-07T22:28:59.656Z,24.67
2019-02-07T22:31:25.695Z,16.87
2019-02-07T22:33:52.083Z,21.40
2019-02-07T22:36:18.135Z,16.60
2019-02-07T22:38:44.150Z,21.43
2019-02-07T22:41:10.167Z,26.53
2019-02-07T22:43:36.207Z,24.37
2019-02-07T22:46:02.219Z,24.10
2019-02-07T22:48:28.255Z,17.83
2019-02-07T22:50:55.611Z,26.02
2019-02-07T22:53:21.804Z,21.80
2019-02-07T22:55:48.143Z,20.17
2019-02-07T22:58:14.253Z,21.23
2019-02-07T23:01:02.220Z,17.73
2019-02-07T23:03:28.239Z,21.23
2019-02-07T23:05:54.264Z,20.53
2019-02-07T23:08:20.596Z,25.87
2019-02-07T23:10:46.614Z,22.23
2019-02-07T23:13:12.724Z,22.17
2019-02-07T23:15:38.890Z,24.13
2019-02-07T23:18:06.534Z,23.73
2019-02-07T23:20:32.580Z,25.60
2019-02-07T23:23:05.061Z,20.30
2019-02-07T23:25:26.628Z,20.27
2019-02-07T23:27:53.137Z,20.63
2019-02-07T23:30:19.207Z,20.80
2019-02-07T23:32:45.295Z,26.43
2019-02-07T23:35:11.327Z,21.37
2019-02-07T23:37:37.375Z,24.47
2019-02-07T23:40:07.211Z,22.40
2019-02-07T23:42:33.248Z,19.33
2019-02-07T23:44:59.269Z,29.87
2019-02-07T23:47:25.310Z,21.83
2019-02-07T23:49:51.747Z,27.63
2019-02-07T23:52:17.795Z,21.37
2019-02-07T23:54:43.829Z,21.03
2019-02-07T23:57:11.777Z,20.67
2019-02-07T23:59:37.803Z,26.93
